Watson, Texas
Current Conditions -  °F | °C
As of 9:35 AM on Saturday 25 Oct 2014 (Local Time) from KLZZ Reporting Station
Clear Clear  
Wind Chill: 71°   Ceiling: Unl
Heat Index: 71°   Visibility: 10mi
Dew Point: 62°   Wind: 5mph
Humidity: 75%   Direction: 220°SW
Pressure: 30.17"   Gusts: NA
Location:  31.1064°N, 98.2303°W
Report Text: KLZZ 251435Z AUTO 22004KT 10SM CLR 22/17 A3017 RMK AO2 T02150169
Loading
Personal Weather Stations






























Interactive Weather Map
Tropical Storm Tracking
New forecast layout! Learn more

10-Day Weather Forecast

Advertisements
Track Severe Weather on mobile